sensor_id;sensor_type;location;lat;lon;timestamp;P1;durP1;ratioP1;P2;durP2;ratioP2
1993;SDS011;998;49.906;10.908;2022-08-01T00:02:15;6.20;;;3.80;;
1993;SDS011;998;49.906;10.908;2022-08-01T00:04:43;4.87;;;3.63;;
1993;SDS011;998;49.906;10.908;2022-08-01T00:07:10;10.13;;;3.80;;
1993;SDS011;998;49.906;10.908;2022-08-01T00:09:37;4.30;;;3.70;;
1993;SDS011;998;49.906;10.908;2022-08-01T00:12:04;5.50;;;4.20;;
1993;SDS011;998;49.906;10.908;2022-08-01T00:14:31;5.03;;;3.57;;
1993;SDS011;998;49.906;10.908;2022-08-01T00:16:57;5.80;;;4.20;;
1993;SDS011;998;49.906;10.908;2022-08-01T00:19:24;7.67;;;3.67;;
1993;SDS011;998;49.906;10.908;2022-08-01T00:21:53;5.03;;;3.70;;
1993;SDS011;998;49.906;10.908;2022-08-01T00:24:19;8.37;;;3.53;;
1993;SDS011;998;49.906;10.908;2022-08-01T00:26:46;4.97;;;4.00;;
1993;SDS011;998;49.906;10.908;2022-08-01T00:29:13;4.60;;;3.60;;
1993;SDS011;998;49.906;10.908;2022-08-01T00:31:40;5.33;;;4.10;;
1993;SDS011;998;49.906;10.908;2022-08-01T00:34:07;4.60;;;3.57;;
1993;SDS011;998;49.906;10.908;2022-08-01T00:36:33;6.43;;;3.60;;
1993;SDS011;998;49.906;10.908;2022-08-01T00:39:02;6.83;;;3.27;;
1993;SDS011;998;49.906;10.908;2022-08-01T00:41:29;5.47;;;3.53;;
1993;SDS011;998;49.906;10.908;2022-08-01T00:43:55;5.60;;;3.53;;
1993;SDS011;998;49.906;10.908;2022-08-01T00:46:22;4.80;;;3.87;;
1993;SDS011;998;49.906;10.908;2022-08-01T00:48:49;7.60;;;3.30;;
1993;SDS011;998;49.906;10.908;2022-08-01T00:51:16;4.20;;;3.20;;
1993;SDS011;998;49.906;10.908;2022-08-01T00:53:43;5.63;;;3.80;;
1993;SDS011;998;49.906;10.908;2022-08-01T00:56:12;5.07;;;3.60;;
1993;SDS011;998;49.906;10.908;2022-08-01T00:58:39;5.87;;;4.00;;
1993;SDS011;998;49.906;10.908;2022-08-01T01:01:06;5.03;;;3.40;;
1993;SDS011;998;49.906;10.908;2022-08-01T01:03:33;5.27;;;3.87;;
1993;SDS011;998;49.906;10.908;2022-08-01T01:06:03;5.97;;;4.00;;
1993;SDS011;998;49.906;10.908;2022-08-01T01:08:39;5.63;;;3.60;;
1993;SDS011;998;49.906;10.908;2022-08-01T01:11:16;5.27;;;4.00;;
1993;SDS011;998;49.906;10.908;2022-08-01T01:13:52;5.73;;;3.80;;
1993;SDS011;998;49.906;10.908;2022-08-01T01:16:26;9.13;;;3.60;;
1993;SDS011;998;49.906;10.908;2022-08-01T01:18:55;5.10;;;4.00;;
1993;SDS011;998;49.906;10.908;2022-08-01T01:24:21;5.23;;;3.70;;
1993;SDS011;998;49.906;10.908;2022-08-01T01:26:59;4.73;;;3.47;;
1993;SDS011;998;49.906;10.908;2022-08-01T01:29:35;5.03;;;3.93;;
1993;SDS011;998;49.906;10.908;2022-08-01T01:32:09;6.03;;;3.60;;
1993;SDS011;998;49.906;10.908;2022-08-01T01:34:43;4.83;;;3.80;;
1993;SDS011;998;49.906;10.908;2022-08-01T01:37:12;4.33;;;3.47;;
1993;SDS011;998;49.906;10.908;2022-08-01T01:39:42;5.43;;;3.67;;
1993;SDS011;998;49.906;10.908;2022-08-01T01:42:10;5.77;;;3.73;;
1993;SDS011;998;49.906;10.908;2022-08-01T01:44:39;8.00;;;3.80;;
1993;SDS011;998;49.906;10.908;2022-08-01T01:47:07;5.73;;;3.80;;
1993;SDS011;998;49.906;10.908;2022-08-01T01:49:34;5.03;;;3.63;;
1993;SDS011;998;49.906;10.908;2022-08-01T01:52:02;5.20;;;3.80;;
1993;SDS011;998;49.906;10.908;2022-08-01T01:54:31;4.90;;;3.80;;
1993;SDS011;998;49.906;10.908;2022-08-01T01:57:01;7.70;;;4.00;;
1993;SDS011;998;49.906;10.908;2022-08-01T01:59:32;4.30;;;3.90;;
1993;SDS011;998;49.906;10.908;2022-08-01T02:02:03;8.17;;;3.57;;
1993;SDS011;998;49.906;10.908;2022-08-01T02:04:31;5.30;;;3.60;;
1993;SDS011;998;49.906;10.908;2022-08-01T02:06:59;6.73;;;3.90;;
1993;SDS011;998;49.906;10.908;2022-08-01T02:09:27;4.50;;;3.63;;
1993;SDS011;998;49.906;10.908;2022-08-01T02:11:55;4.63;;;3.50;;
1993;SDS011;998;49.906;10.908;2022-08-01T02:14:24;4.70;;;3.37;;
1993;SDS011;998;49.906;10.908;2022-08-01T02:16:53;4.77;;;3.77;;
1993;SDS011;998;49.906;10.908;2022-08-01T02:19:24;4.23;;;3.57;;
1993;SDS011;998;49.906;10.908;2022-08-01T02:21:51;5.60;;;3.83;;
1993;SDS011;998;49.906;10.908;2022-08-01T02:24:24;4.50;;;3.50;;
1993;SDS011;998;49.906;10.908;2022-08-01T02:26:58;5.13;;;4.13;;
1993;SDS011;998;49.906;10.908;2022-08-01T02:29:33;14.23;;;4.70;;
1993;SDS011;998;49.906;10.908;2022-08-01T02:32:03;6.33;;;3.97;;
1993;SDS011;998;49.906;10.908;2022-08-01T02:34:33;4.87;;;4.20;;
1993;SDS011;998;49.906;10.908;2022-08-01T02:37:01;6.93;;;4.13;;
1993;SDS011;998;49.906;10.908;2022-08-01T02:39:31;5.60;;;4.40;;
1993;SDS011;998;49.906;10.908;2022-08-01T02:42:02;4.90;;;3.80;;
1993;SDS011;998;49.906;10.908;2022-08-01T02:44:33;5.30;;;3.40;;
1993;SDS011;998;49.906;10.908;2022-08-01T02:47:04;6.10;;;4.30;;
1993;SDS011;998;49.906;10.908;2022-08-01T02:49:31;6.30;;;4.20;;
1993;SDS011;998;49.906;10.908;2022-08-01T02:52:03;4.63;;;3.43;;
1993;SDS011;998;49.906;10.908;2022-08-01T02:54:34;5.10;;;4.60;;
1993;SDS011;998;49.906;10.908;2022-08-01T02:57:03;8.90;;;5.33;;
1993;SDS011;998;49.906;10.908;2022-08-01T02:59:31;4.13;;;3.37;;
1993;SDS011;998;49.906;10.908;2022-08-01T03:02:02;6.80;;;4.33;;
1993;SDS011;998;49.906;10.908;2022-08-01T03:04:31;6.00;;;4.23;;
1993;SDS011;998;49.906;10.908;2022-08-01T03:07:02;5.67;;;4.17;;
1993;SDS011;998;49.906;10.908;2022-08-01T03:09:32;7.20;;;4.13;;
1993;SDS011;998;49.906;10.908;2022-08-01T03:12:04;6.30;;;4.60;;
1993;SDS011;998;49.906;10.908;2022-08-01T03:14:38;4.80;;;4.13;;
1993;SDS011;998;49.906;10.908;2022-08-01T03:17:06;5.50;;;4.47;;
1993;SDS011;998;49.906;10.908;2022-08-01T03:19:34;5.67;;;4.03;;
1993;SDS011;998;49.906;10.908;2022-08-01T03:22:04;8.30;;;4.47;;
1993;SDS011;998;49.906;10.908;2022-08-01T03:24:32;4.97;;;3.97;;
1993;SDS011;998;49.906;10.908;2022-08-01T03:27:00;6.03;;;5.13;;
1993;SDS011;998;49.906;10.908;2022-08-01T03:29:29;7.03;;;3.43;;
1993;SDS011;998;49.906;10.908;2022-08-01T03:31:58;5.63;;;3.90;;
1993;SDS011;998;49.906;10.908;2022-08-01T03:34:26;6.13;;;3.80;;
1993;SDS011;998;49.906;10.908;2022-08-01T03:36:54;5.37;;;4.40;;
1993;SDS011;998;49.906;10.908;2022-08-01T03:39:27;4.80;;;4.00;;
1993;SDS011;998;49.906;10.908;2022-08-01T03:41:57;6.33;;;4.07;;
1993;SDS011;998;49.906;10.908;2022-08-01T03:44:29;6.23;;;4.30;;
1993;SDS011;998;49.906;10.908;2022-08-01T03:47:00;6.40;;;4.43;;
1993;SDS011;998;49.906;10.908;2022-08-01T03:49:31;4.83;;;4.33;;
1993;SDS011;998;49.906;10.908;2022-08-01T03:51:59;7.80;;;4.17;;
1993;SDS011;998;49.906;10.908;2022-08-01T03:54:31;6.70;;;4.50;;
1993;SDS011;998;49.906;10.908;2022-08-01T03:57:01;5.53;;;4.93;;
1993;SDS011;998;49.906;10.908;2022-08-01T03:59:28;7.43;;;4.60;;
1993;SDS011;998;49.906;10.908;2022-08-01T04:01:57;7.43;;;4.77;;
1993;SDS011;998;49.906;10.908;2022-08-01T04:04:24;5.93;;;5.23;;
1993;SDS011;998;49.906;10.908;2022-08-01T04:06:52;7.73;;;5.00;;
1993;SDS011;998;49.906;10.908;2022-08-01T04:09:19;6.00;;;4.43;;
1993;SDS011;998;49.906;10.908;2022-08-01T04:11:48;6.57;;;4.97;;
1993;SDS011;998;49.906;10.908;2022-08-01T04:14:15;22.33;;;6.40;;
1993;SDS011;998;49.906;10.908;2022-08-01T04:16:42;6.83;;;5.37;;
1993;SDS011;998;49.906;10.908;2022-08-01T04:19:09;7.17;;;4.97;;
1993;SDS011;998;49.906;10.908;2022-08-01T04:21:36;8.13;;;5.10;;
1993;SDS011;998;49.906;10.908;2022-08-01T04:24:05;5.23;;;4.33;;
1993;SDS011;998;49.906;10.908;2022-08-01T04:26:36;6.63;;;4.40;;
1993;SDS011;998;49.906;10.908;2022-08-01T04:29:07;5.60;;;5.00;;
1993;SDS011;998;49.906;10.908;2022-08-01T04:31:35;7.53;;;4.77;;
1993;SDS011;998;49.906;10.908;2022-08-01T04:34:04;6.23;;;4.10;;
1993;SDS011;998;49.906;10.908;2022-08-01T04:36:33;7.90;;;5.80;;
1993;SDS011;998;49.906;10.908;2022-08-01T04:39:02;4.97;;;4.37;;
1993;SDS011;998;49.906;10.908;2022-08-01T04:41:30;7.10;;;4.60;;
1993;SDS011;998;49.906;10.908;2022-08-01T04:43:59;6.20;;;4.60;;
1993;SDS011;998;49.906;10.908;2022-08-01T04:46:29;11.93;;;4.90;;
1993;SDS011;998;49.906;10.908;2022-08-01T04:48:57;6.70;;;4.03;;
1993;SDS011;998;49.906;10.908;2022-08-01T04:51:25;6.60;;;4.60;;
1993;SDS011;998;49.906;10.908;2022-08-01T04:53:52;9.40;;;4.90;;
1993;SDS011;998;49.906;10.908;2022-08-01T04:56:19;7.07;;;4.23;;
1993;SDS011;998;49.906;10.908;2022-08-01T04:58:46;5.50;;;4.90;;
1993;SDS011;998;49.906;10.908;2022-08-01T05:01:35;5.80;;;4.83;;
1993;SDS011;998;49.906;10.908;2022-08-01T05:04:01;5.50;;;4.27;;
1993;SDS011;998;49.906;10.908;2022-08-01T05:06:28;5.87;;;4.07;;
1993;SDS011;998;49.906;10.908;2022-08-01T05:08:55;11.67;;;5.17;;
1993;SDS011;998;49.906;10.908;2022-08-01T05:11:22;7.30;;;5.40;;
1993;SDS011;998;49.906;10.908;2022-08-01T05:13:49;6.80;;;5.47;;
1993;SDS011;998;49.906;10.908;2022-08-01T05:16:16;6.73;;;4.93;;
1993;SDS011;998;49.906;10.908;2022-08-01T05:18:44;8.20;;;5.50;;
1993;SDS011;998;49.906;10.908;2022-08-01T05:21:11;5.90;;;5.10;;
1993;SDS011;998;49.906;10.908;2022-08-01T05:23:38;7.53;;;5.23;;
1993;SDS011;998;49.906;10.908;2022-08-01T05:26:05;7.80;;;6.00;;
1993;SDS011;998;49.906;10.908;2022-08-01T05:28:32;6.20;;;5.60;;
1993;SDS011;998;49.906;10.908;2022-08-01T05:30:59;7.77;;;6.37;;
1993;SDS011;998;49.906;10.908;2022-08-01T05:33:26;7.20;;;6.00;;
1993;SDS011;998;49.906;10.908;2022-08-01T05:35:54;6.20;;;4.70;;
1993;SDS011;998;49.906;10.908;2022-08-01T05:38:21;9.00;;;5.47;;
1993;SDS011;998;49.906;10.908;2022-08-01T05:40:47;9.80;;;5.63;;
1993;SDS011;998;49.906;10.908;2022-08-01T05:43:14;7.77;;;5.80;;
1993;SDS011;998;49.906;10.908;2022-08-01T05:45:41;11.33;;;4.97;;
1993;SDS011;998;49.906;10.908;2022-08-01T05:48:09;10.20;;;5.70;;
1993;SDS011;998;49.906;10.908;2022-08-01T05:50:36;7.70;;;6.63;;
1993;SDS011;998;49.906;10.908;2022-08-01T05:53:04;8.50;;;5.80;;
1993;SDS011;998;49.906;10.908;2022-08-01T05:55:31;6.50;;;5.27;;
1993;SDS011;998;49.906;10.908;2022-08-01T05:57:58;7.40;;;5.77;;
1993;SDS011;998;49.906;10.908;2022-08-01T06:00:25;5.97;;;4.97;;
1993;SDS011;998;49.906;10.908;2022-08-01T06:02:52;9.20;;;5.27;;
1993;SDS011;998;49.906;10.908;2022-08-01T06:05:19;7.07;;;4.73;;
1993;SDS011;998;49.906;10.908;2022-08-01T06:07:45;11.27;;;4.53;;
1993;SDS011;998;49.906;10.908;2022-08-01T06:10:14;8.80;;;5.50;;
1993;SDS011;998;49.906;10.908;2022-08-01T06:12:40;6.00;;;5.40;;
1993;SDS011;998;49.906;10.908;2022-08-01T06:15:08;8.30;;;5.57;;
1993;SDS011;998;49.906;10.908;2022-08-01T06:17:35;5.07;;;4.37;;
1993;SDS011;998;49.906;10.908;2022-08-01T06:20:02;8.37;;;4.50;;
1993;SDS011;998;49.906;10.908;2022-08-01T06:22:31;6.13;;;4.10;;
1993;SDS011;998;49.906;10.908;2022-08-01T06:24:58;5.63;;;5.03;;
1993;SDS011;998;49.906;10.908;2022-08-01T06:27:26;7.80;;;4.53;;
1993;SDS011;998;49.906;10.908;2022-08-01T06:29:53;5.40;;;4.17;;
1993;SDS011;998;49.906;10.908;2022-08-01T06:32:20;7.03;;;4.37;;
1993;SDS011;998;49.906;10.908;2022-08-01T06:34:47;5.70;;;4.73;;
1993;SDS011;998;49.906;10.908;2022-08-01T06:37:14;9.23;;;4.50;;
1993;SDS011;998;49.906;10.908;2022-08-01T06:39:41;7.20;;;4.20;;
1993;SDS011;998;49.906;10.908;2022-08-01T06:42:08;7.27;;;4.60;;
1993;SDS011;998;49.906;10.908;2022-08-01T06:44:36;6.47;;;4.47;;
1993;SDS011;998;49.906;10.908;2022-08-01T06:47:03;6.97;;;5.27;;
1993;SDS011;998;49.906;10.908;2022-08-01T06:49:30;10.37;;;4.30;;
1993;SDS011;998;49.906;10.908;2022-08-01T06:51:57;8.03;;;5.40;;
1993;SDS011;998;49.906;10.908;2022-08-01T06:54:24;6.00;;;4.23;;
1993;SDS011;998;49.906;10.908;2022-08-01T06:56:50;5.00;;;4.10;;
1993;SDS011;998;49.906;10.908;2022-08-01T06:59:17;6.10;;;4.10;;
1993;SDS011;998;49.906;10.908;2022-08-01T07:01:46;9.00;;;4.23;;
1993;SDS011;998;49.906;10.908;2022-08-01T07:04:12;7.83;;;4.73;;
1993;SDS011;998;49.906;10.908;2022-08-01T07:06:39;10.77;;;5.40;;
1993;SDS011;998;49.906;10.908;2022-08-01T07:09:06;6.80;;;4.80;;
1993;SDS011;998;49.906;10.908;2022-08-01T07:11:33;8.00;;;4.53;;
1993;SDS011;998;49.906;10.908;2022-08-01T07:14:00;6.50;;;4.47;;
1993;SDS011;998;49.906;10.908;2022-08-01T07:16:28;6.70;;;4.70;;
1993;SDS011;998;49.906;10.908;2022-08-01T07:18:56;5.70;;;4.30;;
1993;SDS011;998;49.906;10.908;2022-08-01T07:21:23;8.43;;;5.07;;
1993;SDS011;998;49.906;10.908;2022-08-01T07:23:50;8.23;;;3.70;;
1993;SDS011;998;49.906;10.908;2022-08-01T07:26:17;5.47;;;3.27;;
1993;SDS011;998;49.906;10.908;2022-08-01T07:28:43;4.70;;;3.67;;
1993;SDS011;998;49.906;10.908;2022-08-01T07:31:10;5.97;;;3.80;;
1993;SDS011;998;49.906;10.908;2022-08-01T07:33:37;7.50;;;4.30;;
1993;SDS011;998;49.906;10.908;2022-08-01T07:36:05;4.73;;;3.77;;
1993;SDS011;998;49.906;10.908;2022-08-01T07:38:32;8.30;;;3.33;;
1993;SDS011;998;49.906;10.908;2022-08-01T07:40:59;4.10;;;3.20;;
1993;SDS011;998;49.906;10.908;2022-08-01T07:43:26;7.47;;;4.27;;
1993;SDS011;998;49.906;10.908;2022-08-01T07:45:53;5.17;;;3.70;;
1993;SDS011;998;49.906;10.908;2022-08-01T07:48:19;7.07;;;3.57;;
1993;SDS011;998;49.906;10.908;2022-08-01T07:50:49;5.00;;;2.77;;
1993;SDS011;998;49.906;10.908;2022-08-01T07:53:17;6.67;;;3.10;;
1993;SDS011;998;49.906;10.908;2022-08-01T07:55:44;6.17;;;3.70;;
1993;SDS011;998;49.906;10.908;2022-08-01T07:58:11;5.37;;;3.83;;
1993;SDS011;998;49.906;10.908;2022-08-01T08:00:38;4.83;;;3.87;;
1993;SDS011;998;49.906;10.908;2022-08-01T08:03:04;4.13;;;3.43;;
1993;SDS011;998;49.906;10.908;2022-08-01T08:05:32;4.03;;;3.00;;
1993;SDS011;998;49.906;10.908;2022-08-01T08:08:00;4.00;;;3.17;;
1993;SDS011;998;49.906;10.908;2022-08-01T08:10:28;6.20;;;3.17;;
1993;SDS011;998;49.906;10.908;2022-08-01T08:12:55;4.00;;;2.97;;
1993;SDS011;998;49.906;10.908;2022-08-01T08:15:21;4.50;;;3.47;;
1993;SDS011;998;49.906;10.908;2022-08-01T08:17:48;4.73;;;3.40;;
1993;SDS011;998;49.906;10.908;2022-08-01T08:20:15;6.23;;;3.80;;
1993;SDS011;998;49.906;10.908;2022-08-01T08:22:42;4.10;;;3.17;;
1993;SDS011;998;49.906;10.908;2022-08-01T08:25:09;3.90;;;2.90;;
1993;SDS011;998;49.906;10.908;2022-08-01T08:27:38;4.00;;;3.00;;
1993;SDS011;998;49.906;10.908;2022-08-01T08:30:05;4.93;;;3.00;;
1993;SDS011;998;49.906;10.908;2022-08-01T08:32:33;6.40;;;3.43;;
1993;SDS011;998;49.906;10.908;2022-08-01T08:35:00;4.00;;;2.93;;
1993;SDS011;998;49.906;10.908;2022-08-01T08:37:27;5.10;;;3.13;;
1993;SDS011;998;49.906;10.908;2022-08-01T08:39:54;5.33;;;3.10;;
1993;SDS011;998;49.906;10.908;2022-08-01T08:42:21;13.27;;;3.70;;
1993;SDS011;998;49.906;10.908;2022-08-01T08:44:49;5.00;;;2.97;;
1993;SDS011;998;49.906;10.908;2022-08-01T08:47:16;4.27;;;2.80;;
1993;SDS011;998;49.906;10.908;2022-08-01T08:49:44;3.67;;;2.63;;
1993;SDS011;998;49.906;10.908;2022-08-01T08:52:12;4.10;;;2.70;;
1993;SDS011;998;49.906;10.908;2022-08-01T08:54:40;6.60;;;3.20;;
1993;SDS011;998;49.906;10.908;2022-08-01T08:57:08;4.00;;;2.60;;
1993;SDS011;998;49.906;10.908;2022-08-01T08:59:36;5.33;;;2.60;;
1993;SDS011;998;49.906;10.908;2022-08-01T09:02:05;6.00;;;3.10;;
1993;SDS011;998;49.906;10.908;2022-08-01T09:04:34;4.93;;;2.60;;
1993;SDS011;998;49.906;10.908;2022-08-01T09:07:03;4.53;;;3.80;;
1993;SDS011;998;49.906;10.908;2022-08-01T09:09:31;6.30;;;3.63;;
1993;SDS011;998;49.906;10.908;2022-08-01T09:11:58;4.63;;;3.20;;
1993;SDS011;998;49.906;10.908;2022-08-01T09:14:25;3.70;;;2.63;;
1993;SDS011;998;49.906;10.908;2022-08-01T09:16:59;3.83;;;2.70;;
1993;SDS011;998;49.906;10.908;2022-08-01T09:19:35;5.17;;;2.93;;
1993;SDS011;998;49.906;10.908;2022-08-01T09:22:04;5.47;;;2.83;;
1993;SDS011;998;49.906;10.908;2022-08-01T09:24:33;3.40;;;2.80;;
1993;SDS011;998;49.906;10.908;2022-08-01T09:27:01;8.00;;;3.90;;
1993;SDS011;998;49.906;10.908;2022-08-01T09:29:41;3.80;;;2.80;;
1993;SDS011;998;49.906;10.908;2022-08-01T09:32:09;5.00;;;3.50;;
1993;SDS011;998;49.906;10.908;2022-08-01T09:34:38;3.70;;;2.67;;
1993;SDS011;998;49.906;10.908;2022-08-01T09:37:04;4.20;;;2.60;;
1993;SDS011;998;49.906;10.908;2022-08-01T09:39:32;6.37;;;3.10;;
1993;SDS011;998;49.906;10.908;2022-08-01T09:42:02;3.60;;;2.77;;
1993;SDS011;998;49.906;10.908;2022-08-01T09:44:45;3.93;;;2.57;;
1993;SDS011;998;49.906;10.908;2022-08-01T09:47:12;4.83;;;3.10;;
1993;SDS011;998;49.906;10.908;2022-08-01T09:49:41;4.13;;;2.70;;
1993;SDS011;998;49.906;10.908;2022-08-01T09:52:10;4.50;;;2.90;;
1993;SDS011;998;49.906;10.908;2022-08-01T09:54:38;3.60;;;2.53;;
1993;SDS011;998;49.906;10.908;2022-08-01T09:57:09;5.37;;;2.60;;
1993;SDS011;998;49.906;10.908;2022-08-01T09:59:37;9.60;;;3.60;;
1993;SDS011;998;49.906;10.908;2022-08-01T10:02:07;3.90;;;2.90;;
1993;SDS011;998;49.906;10.908;2022-08-01T10:04:35;6.23;;;3.27;;
1993;SDS011;998;49.906;10.908;2022-08-01T10:07:05;4.13;;;2.70;;
1993;SDS011;998;49.906;10.908;2022-08-01T10:09:33;5.43;;;2.97;;
1993;SDS011;998;49.906;10.908;2022-08-01T10:12:01;4.10;;;2.57;;
1993;SDS011;998;49.906;10.908;2022-08-01T10:14:29;3.30;;;2.60;;
1993;SDS011;998;49.906;10.908;2022-08-01T10:16:57;3.50;;;2.37;;
1993;SDS011;998;49.906;10.908;2022-08-01T10:19:26;5.20;;;3.13;;
1993;SDS011;998;49.906;10.908;2022-08-01T10:21:54;4.63;;;3.03;;
1993;SDS011;998;49.906;10.908;2022-08-01T10:24:23;5.20;;;2.90;;
1993;SDS011;998;49.906;10.908;2022-08-01T10:26:52;4.30;;;3.00;;
1993;SDS011;998;49.906;10.908;2022-08-01T10:29:24;3.97;;;2.40;;
1993;SDS011;998;49.906;10.908;2022-08-01T10:31:53;5.63;;;3.47;;
1993;SDS011;998;49.906;10.908;2022-08-01T10:34:20;3.60;;;2.70;;
1993;SDS011;998;49.906;10.908;2022-08-01T10:36:47;3.60;;;2.47;;
1993;SDS011;998;49.906;10.908;2022-08-01T10:39:14;7.23;;;2.60;;
1993;SDS011;998;49.906;10.908;2022-08-01T10:41:45;4.07;;;3.17;;
1993;SDS011;998;49.906;10.908;2022-08-01T10:44:12;4.33;;;2.63;;
1993;SDS011;998;49.906;10.908;2022-08-01T10:46:39;3.20;;;2.30;;
1993;SDS011;998;49.906;10.908;2022-08-01T10:49:14;8.20;;;2.70;;
1993;SDS011;998;49.906;10.908;2022-08-01T10:51:43;4.30;;;2.50;;
1993;SDS011;998;49.906;10.908;2022-08-01T10:54:12;4.70;;;2.77;;
1993;SDS011;998;49.906;10.908;2022-08-01T10:56:39;3.67;;;2.40;;
1993;SDS011;998;49.906;10.908;2022-08-01T10:59:14;3.30;;;2.57;;
1993;SDS011;998;49.906;10.908;2022-08-01T11:01:55;3.60;;;2.63;;
1993;SDS011;998;49.906;10.908;2022-08-01T11:04:32;3.70;;;2.70;;
1993;SDS011;998;49.906;10.908;2022-08-01T11:07:03;5.03;;;3.47;;
1993;SDS011;998;49.906;10.908;2022-08-01T11:09:37;3.07;;;2.13;;
1993;SDS011;998;49.906;10.908;2022-08-01T11:12:09;4.27;;;2.83;;
1993;SDS011;998;49.906;10.908;2022-08-01T11:17:42;4.20;;;3.00;;
1993;SDS011;998;49.906;10.908;2022-08-01T11:20:14;4.17;;;2.60;;
1993;SDS011;998;49.906;10.908;2022-08-01T11:26:07;5.20;;;2.43;;
1993;SDS011;998;49.906;10.908;2022-08-01T11:28:45;4.23;;;2.70;;
1993;SDS011;998;49.906;10.908;2022-08-01T11:31:35;3.47;;;2.30;;
1993;SDS011;998;49.906;10.908;2022-08-01T11:34:03;3.30;;;2.53;;
1993;SDS011;998;49.906;10.908;2022-08-01T11:36:29;5.53;;;2.70;;
1993;SDS011;998;49.906;10.908;2022-08-01T11:39:15;5.63;;;2.47;;
1993;SDS011;998;49.906;10.908;2022-08-01T11:41:44;4.27;;;2.47;;
1993;SDS011;998;49.906;10.908;2022-08-01T11:44:18;4.30;;;3.10;;
1993;SDS011;998;49.906;10.908;2022-08-01T11:46:57;4.70;;;2.80;;
1993;SDS011;998;49.906;10.908;2022-08-01T11:49:31;3.70;;;1.60;;
1993;SDS011;998;49.906;10.908;2022-08-01T11:52:02;2.97;;;1.70;;
1993;SDS011;998;49.906;10.908;2022-08-01T11:54:32;2.70;;;1.50;;
1993;SDS011;998;49.906;10.908;2022-08-01T11:57:00;3.67;;;1.57;;
1993;SDS011;998;49.906;10.908;2022-08-01T11:59:34;3.20;;;1.87;;
1993;SDS011;998;49.906;10.908;2022-08-01T12:02:03;3.50;;;2.00;;
1993;SDS011;998;49.906;10.908;2022-08-01T12:04:44;3.13;;;1.87;;
1993;SDS011;998;49.906;10.908;2022-08-01T12:07:12;3.90;;;1.70;;
1993;SDS011;998;49.906;10.908;2022-08-01T12:09:39;6.17;;;1.90;;
1993;SDS011;998;49.906;10.908;2022-08-01T12:12:08;2.63;;;1.87;;
1993;SDS011;998;49.906;10.908;2022-08-01T12:14:38;3.57;;;2.67;;
1993;SDS011;998;49.906;10.908;2022-08-01T12:17:05;4.00;;;2.47;;
1993;SDS011;998;49.906;10.908;2022-08-01T12:19:35;3.70;;;2.13;;
1993;SDS011;998;49.906;10.908;2022-08-01T12:22:04;4.57;;;2.30;;
1993;SDS011;998;49.906;10.908;2022-08-01T12:24:32;3.00;;;1.90;;
1993;SDS011;998;49.906;10.908;2022-08-01T12:26:59;3.90;;;1.93;;
1993;SDS011;998;49.906;10.908;2022-08-01T12:29:33;3.30;;;2.07;;
1993;SDS011;998;49.906;10.908;2022-08-01T12:32:03;2.77;;;1.60;;
1993;SDS011;998;49.906;10.908;2022-08-01T12:34:45;4.53;;;2.00;;
1993;SDS011;998;49.906;10.908;2022-08-01T12:37:12;2.90;;;1.93;;
1993;SDS011;998;49.906;10.908;2022-08-01T12:39:40;4.10;;;1.97;;
1993;SDS011;998;49.906;10.908;2022-08-01T12:42:09;2.93;;;2.00;;
1993;SDS011;998;49.906;10.908;2022-08-01T12:44:37;3.20;;;2.20;;
1993;SDS011;998;49.906;10.908;2022-08-01T12:47:30;3.63;;;1.97;;
1993;SDS011;998;49.906;10.908;2022-08-01T12:50:03;3.50;;;2.30;;
1993;SDS011;998;49.906;10.908;2022-08-01T12:52:54;5.87;;;3.23;;
1993;SDS011;998;49.906;10.908;2022-08-01T12:55:40;3.10;;;2.30;;
1993;SDS011;998;49.906;10.908;2022-08-01T12:59:06;4.37;;;2.40;;
1993;SDS011;998;49.906;10.908;2022-08-01T13:05:12;4.27;;;2.00;;
1993;SDS011;998;49.906;10.908;2022-08-01T13:07:50;3.10;;;2.33;;
1993;SDS011;998;49.906;10.908;2022-08-01T13:10:27;3.20;;;2.33;;
1993;SDS011;998;49.906;10.908;2022-08-01T13:13:04;3.00;;;2.10;;
1993;SDS011;998;49.906;10.908;2022-08-01T13:16:04;3.90;;;1.90;;
1993;SDS011;998;49.906;10.908;2022-08-01T13:18:36;2.80;;;1.93;;
1993;SDS011;998;49.906;10.908;2022-08-01T13:21:14;2.80;;;2.07;;
1993;SDS011;998;49.906;10.908;2022-08-01T13:29:51;3.13;;;1.97;;
1993;SDS011;998;49.906;10.908;2022-08-01T13:32:21;3.20;;;1.70;;
1993;SDS011;998;49.906;10.908;2022-08-01T13:34:51;3.10;;;1.90;;
1993;SDS011;998;49.906;10.908;2022-08-01T13:37:34;3.10;;;2.30;;
1993;SDS011;998;49.906;10.908;2022-08-01T13:41:12;3.30;;;2.10;;
1993;SDS011;998;49.906;10.908;2022-08-01T13:46:16;3.23;;;2.27;;
1993;SDS011;998;49.906;10.908;2022-08-01T13:48:46;3.87;;;2.20;;
1993;SDS011;998;49.906;10.908;2022-08-01T13:51:16;2.90;;;1.70;;
1993;SDS011;998;49.906;10.908;2022-08-01T13:53:43;2.97;;;2.10;;
1993;SDS011;998;49.906;10.908;2022-08-01T13:56:10;3.33;;;2.07;;
1993;SDS011;998;49.906;10.908;2022-08-01T13:58:37;3.43;;;1.90;;
1993;SDS011;998;49.906;10.908;2022-08-01T14:01:07;3.60;;;1.90;;
1993;SDS011;998;49.906;10.908;2022-08-01T14:03:33;3.10;;;2.20;;
1993;SDS011;998;49.906;10.908;2022-08-01T14:06:00;4.10;;;1.97;;
1993;SDS011;998;49.906;10.908;2022-08-01T14:08:29;3.10;;;2.00;;
1993;SDS011;998;49.906;10.908;2022-08-01T14:10:56;3.17;;;2.23;;
1993;SDS011;998;49.906;10.908;2022-08-01T14:13:23;3.30;;;2.07;;
1993;SDS011;998;49.906;10.908;2022-08-01T14:15:50;4.60;;;1.90;;
1993;SDS011;998;49.906;10.908;2022-08-01T14:18:17;2.60;;;1.67;;
1993;SDS011;998;49.906;10.908;2022-08-01T14:20:44;2.97;;;1.60;;
1993;SDS011;998;49.906;10.908;2022-08-01T14:23:11;4.93;;;2.00;;
1993;SDS011;998;49.906;10.908;2022-08-01T14:25:40;3.07;;;1.93;;
1993;SDS011;998;49.906;10.908;2022-08-01T14:28:10;3.10;;;2.07;;
1993;SDS011;998;49.906;10.908;2022-08-01T14:30:37;3.00;;;1.80;;
1993;SDS011;998;49.906;10.908;2022-08-01T14:33:07;3.30;;;2.00;;
1993;SDS011;998;49.906;10.908;2022-08-01T14:35:34;4.30;;;1.90;;
1993;SDS011;998;49.906;10.908;2022-08-01T14:55:01;4.10;;;2.30;;
1993;SDS011;998;49.906;10.908;2022-08-01T15:01:45;3.07;;;2.07;;
1993;SDS011;998;49.906;10.908;2022-08-01T15:04:57;3.17;;;1.70;;
1993;SDS011;998;49.906;10.908;2022-08-01T15:07:44;4.80;;;2.20;;
1993;SDS011;998;49.906;10.908;2022-08-01T15:10:53;3.83;;;2.27;;
1993;SDS011;998;49.906;10.908;2022-08-01T15:13:26;6.10;;;2.40;;
1993;SDS011;998;49.906;10.908;2022-08-01T15:16:13;3.17;;;1.80;;
1993;SDS011;998;49.906;10.908;2022-08-01T15:21:44;3.00;;;1.77;;
1993;SDS011;998;49.906;10.908;2022-08-01T15:27:37;3.00;;;2.00;;
1993;SDS011;998;49.906;10.908;2022-08-01T15:30:19;3.20;;;2.10;;
1993;SDS011;998;49.906;10.908;2022-08-01T15:33:01;2.90;;;2.17;;
1993;SDS011;998;49.906;10.908;2022-08-01T15:36:13;4.23;;;2.27;;
1993;SDS011;998;49.906;10.908;2022-08-01T15:38:47;2.90;;;2.10;;
1993;SDS011;998;49.906;10.908;2022-08-01T15:44:33;3.93;;;2.30;;
1993;SDS011;998;49.906;10.908;2022-08-01T15:47:05;5.97;;;2.70;;
1993;SDS011;998;49.906;10.908;2022-08-01T15:50:06;3.17;;;1.70;;
1993;SDS011;998;49.906;10.908;2022-08-01T15:52:48;4.50;;;2.27;;
1993;SDS011;998;49.906;10.908;2022-08-01T15:55:35;3.30;;;2.30;;
1993;SDS011;998;49.906;10.908;2022-08-01T15:58:10;3.37;;;2.23;;
1993;SDS011;998;49.906;10.908;2022-08-01T16:00:58;3.57;;;2.33;;
1993;SDS011;998;49.906;10.908;2022-08-01T16:03:43;3.50;;;2.67;;
1993;SDS011;998;49.906;10.908;2022-08-01T16:06:21;4.50;;;1.97;;
1993;SDS011;998;49.906;10.908;2022-08-01T16:09:05;3.87;;;2.23;;
1993;SDS011;998;49.906;10.908;2022-08-01T16:11:39;3.03;;;2.20;;
1993;SDS011;998;49.906;10.908;2022-08-01T16:55:34;4.30;;;2.30;;
1993;SDS011;998;49.906;10.908;2022-08-01T16:58:01;3.93;;;1.97;;
1993;SDS011;998;49.906;10.908;2022-08-01T17:00:28;4.80;;;2.20;;
1993;SDS011;998;49.906;10.908;2022-08-01T17:02:55;3.73;;;1.90;;
1993;SDS011;998;49.906;10.908;2022-08-01T17:05:22;3.50;;;2.30;;
1993;SDS011;998;49.906;10.908;2022-08-01T17:07:49;4.13;;;2.27;;
1993;SDS011;998;49.906;10.908;2022-08-01T17:10:15;4.30;;;2.33;;